Time,TemperatureF,DewpointF,PressureIn,WindDirection,WindDirectionDegrees,WindSpeedMPH,WindSpeedGustMPH,Humidity,HourlyPrecipIn,Conditions,Clouds,dailyrainin,SoftwareType,DateUTC
2013-10-24 00:00:00,42.0,40.1,29.78,NW,304,0.0,2.0,93,0.00,,---,0.31,VWS V14.01,2013-10-24 04:00:00,
2013-10-24 00:01:00,40.5,38.9,29.80,NW,316,0.0,1.0,94,0.00,,---,0.00,VWS V14.01,2013-10-24 04:01:00,
2013-10-24 00:06:00,40.4,38.8,29.80,WNW,301,1.0,2.0,94,0.00,,---,0.00,VWS V14.01,2013-10-24 04:06:00,
2013-10-24 00:11:00,40.4,38.8,29.80,WSW,246,1.0,2.0,94,0.00,,---,0.00,VWS V14.01,2013-10-24 04:11:00,
2013-10-24 00:16:00,40.4,38.8,29.80,NW,311,2.0,3.0,94,0.00,,---,0.00,VWS V14.01,2013-10-24 04:16:00,
2013-10-24 00:21:00,40.3,38.7,29.80,West,278,0.0,3.0,94,0.00,,---,0.00,VWS V14.01,2013-10-24 04:21:00,
2013-10-24 00:26:00,40.4,39.1,29.80,WSW,240,0.0,3.0,95,0.00,,---,0.00,VWS V14.01,2013-10-24 04:26:00,
2013-10-24 00:30:00,41.2,39.3,29.79,West,274,0.0,5.0,93,0.00,,---,0.31,VWS V14.01,2013-10-24 04:30:00,
2013-10-24 00:31:00,40.4,39.1,29.80,WSW,252,0.0,2.0,95,0.00,,---,0.00,VWS V14.01,2013-10-24 04:31:00,
2013-10-24 00:36:00,40.4,38.8,29.80,West,265,0.0,4.0,94,0.00,,---,0.00,VWS V14.01,2013-10-24 04:36:00,
2013-10-24 00:41:00,40.3,38.7,29.80,West,275,2.0,4.0,94,0.00,,---,0.00,VWS V14.01,2013-10-24 04:41:00,
2013-10-24 00:46:00,40.3,39.0,29.80,NNW,333,1.0,4.0,95,0.00,,---,0.00,VWS V14.01,2013-10-24 04:46:00,
2013-10-24 00:51:00,40.3,39.0,29.80,WSW,254,3.0,6.0,95,0.00,,---,0.00,VWS V14.01,2013-10-24 04:51:00,
2013-10-24 00:56:00,40.2,38.9,29.81,West,281,1.0,6.0,95,0.00,,---,0.00,VWS V14.01,2013-10-24 04:56:00,
2013-10-24 01:00:00,40.5,38.9,29.80,WSW,255,0.0,5.0,94,0.00,,---,0.31,VWS V14.01,2013-10-24 05:00:00,
2013-10-24 01:01:00,40.1,38.8,29.81,NW,305,0.0,1.0,95,0.00,,---,0.00,VWS V14.01,2013-10-24 05:01:00,
2013-10-24 01:06:00,40.1,38.8,29.81,West,266,1.0,1.0,95,0.00,,---,0.00,VWS V14.01,2013-10-24 05:06:00,
2013-10-24 01:11:00,40.0,38.7,29.82,WSW,256,4.0,5.0,95,0.00,,---,0.00,VWS V14.01,2013-10-24 05:11:00,
2013-10-24 01:16:00,40.1,38.8,29.82,WNW,292,0.0,5.0,95,0.00,,---,0.00,VWS V14.01,2013-10-24 05:16:00,
2013-10-24 01:20:00,40.0,38.7,29.82,WSW,257,0.0,5.0,95,0.00,,---,0.00,VWS V14.01,2013-10-24 05:20:00,
2013-10-24 01:25:00,40.0,38.7,29.82,WNW,287,0.0,5.0,95,0.00,,---,0.00,VWS V14.01,2013-10-24 05:25:00,
2013-10-24 01:30:00,39.9,38.6,29.82,NNW,340,0.0,1.0,95,0.00,,---,0.00,VWS V14.01,2013-10-24 05:30:00,
2013-10-24 01:35:00,39.9,38.6,29.82,NNW,331,0.0,3.0,95,0.00,,---,0.00,VWS V14.01,2013-10-24 05:35:00,
2013-10-24 01:40:00,39.9,38.6,29.82,NW,324,0.0,3.0,95,0.00,,---,0.00,VWS V14.01,2013-10-24 05:40:00,
2013-10-24 01:45:00,39.9,38.6,29.82,West,279,1.0,7.0,95,0.00,,---,0.00,VWS V14.01,2013-10-24 05:45:00,
2013-10-24 01:50:00,39.9,38.6,29.82,West,277,1.0,7.0,95,0.00,,---,0.00,VWS V14.01,2013-10-24 05:50:00,
2013-10-24 01:55:00,40.0,38.7,29.83,NNW,334,2.0,7.0,95,0.00,,---,0.00,VWS V14.01,2013-10-24 05:55:00,
2013-10-24 02:00:00,40.0,38.7,29.83,West,272,0.0,1.0,95,0.00,,---,0.00,VWS V14.01,2013-10-24 06:00:00,
2013-10-24 02:05:00,40.0,38.7,29.83,WSW,243,0.0,1.0,95,0.00,,---,0.00,VWS V14.01,2013-10-24 06:05:00,
2013-10-24 02:10:00,40.1,38.8,29.83,WSW,255,0.0,1.0,95,0.00,,---,0.00,VWS V14.01,2013-10-24 06:10:00,
2013-10-24 02:15:00,40.0,38.7,29.83,West,260,0.0,3.0,95,0.00,,---,0.00,VWS V14.01,2013-10-24 06:15:00,
2013-10-24 02:20:00,40.0,38.7,29.84,NW,304,2.0,6.0,95,0.00,,---,0.00,VWS V14.01,2013-10-24 06:20:00,
2013-10-24 02:25:00,40.0,38.7,29.84,WSW,238,1.0,6.0,95,0.00,,---,0.00,VWS V14.01,2013-10-24 06:25:00,
2013-10-24 02:30:00,39.9,38.3,29.84,NW,306,2.0,2.0,94,0.00,,---,0.00,VWS V14.01,2013-10-24 06:30:00,
2013-10-24 02:35:00,39.8,38.5,29.84,West,281,1.0,5.0,95,0.00,,---,0.00,VWS V14.01,2013-10-24 06:35:00,
2013-10-24 02:40:00,39.8,38.5,29.84,WSW,257,2.0,5.0,95,0.00,,---,0.00,VWS V14.01,2013-10-24 06:40:00,
2013-10-24 02:45:00,39.8,38.5,29.84,West,279,1.0,5.0,95,0.00,,---,0.00,VWS V14.01,2013-10-24 06:45:00,
2013-10-24 02:50:00,39.7,38.4,29.84,West,265,0.0,5.0,95,0.00,,---,0.00,VWS V14.01,2013-10-24 06:50:00,
2013-10-24 02:55:00,39.6,38.3,29.85,SSW,204,0.0,5.0,95,0.00,,---,0.00,VWS V14.01,2013-10-24 06:55:00,
2013-10-24 03:00:00,39.6,38.3,29.85,WSW,255,1.0,1.0,95,0.00,,---,0.00,VWS V14.01,2013-10-24 07:00:00,
2013-10-24 03:05:00,39.5,38.2,29.85,WSW,244,1.0,3.0,95,0.00,,---,0.00,VWS V14.01,2013-10-24 07:05:00,
2013-10-24 03:10:00,39.5,38.2,29.85,West,279,4.0,6.0,95,0.00,,---,0.00,VWS V14.01,2013-10-24 07:10:00,
2013-10-24 03:15:00,39.5,38.2,29.85,West,266,1.0,6.0,95,0.00,,---,0.00,VWS V14.01,2013-10-24 07:15:00,
2013-10-24 03:20:00,39.4,38.1,29.85,WSW,255,1.0,6.0,95,0.00,,---,0.00,VWS V14.01,2013-10-24 07:20:00,
2013-10-24 03:25:00,39.4,38.1,29.85,SW,232,1.0,6.0,95,0.00,,---,0.00,VWS V14.01,2013-10-24 07:25:00,
2013-10-24 03:30:00,39.3,38.0,29.85,NW,311,0.0,0.0,95,0.00,,---,0.00,VWS V14.01,2013-10-24 07:30:00,
2013-10-24 03:35:00,39.2,37.9,29.86,West,270,0.0,1.0,95,0.00,,---,0.00,VWS V14.01,2013-10-24 07:35:00,
2013-10-24 03:40:00,39.1,37.8,29.86,WNW,282,1.0,5.0,95,0.00,,---,0.00,VWS V14.01,2013-10-24 07:40:00,
2013-10-24 03:45:00,39.0,37.7,29.86,WSW,251,2.0,5.0,95,0.00,,---,0.00,VWS V14.01,2013-10-24 07:45:00,
2013-10-24 03:50:00,39.0,37.7,29.86,WSW,249,1.0,5.0,95,0.00,,---,0.00,VWS V14.01,2013-10-24 07:50:00,
2013-10-24 03:55:00,38.9,37.6,29.86,WNW,282,0.0,5.0,95,0.00,,---,0.00,VWS V14.01,2013-10-24 07:55:00,
2013-10-24 04:00:00,38.8,37.5,29.86,WNW,298,0.0,1.0,95,0.00,,---,0.00,VWS V14.01,2013-10-24 08:00:00,
2013-10-24 04:05:00,38.8,37.5,29.86,NW,307,0.0,3.0,95,0.00,,---,0.00,VWS V14.01,2013-10-24 08:05:00,
2013-10-24 04:10:00,38.8,37.5,29.86,West,259,1.0,5.0,95,0.00,,---,0.00,VWS V14.01,2013-10-24 08:10:00,
2013-10-24 04:15:00,38.8,37.5,29.86,WNW,296,4.0,5.0,95,0.00,,---,0.00,VWS V14.01,2013-10-24 08:15:00,
2013-10-24 04:20:00,38.8,37.5,29.86,West,271,0.0,5.0,95,0.00,,---,0.00,VWS V14.01,2013-10-24 08:20:00,
2013-10-24 04:25:00,38.8,37.5,29.86,NW,304,1.0,6.0,95,0.00,,---,0.00,VWS V14.01,2013-10-24 08:25:00,
2013-10-24 04:30:00,38.8,37.5,29.86,WNW,293,1.0,3.0,95,0.00,,---,0.00,VWS V14.01,2013-10-24 08:30:00,
2013-10-24 04:35:00,38.7,37.4,29.86,West,273,1.0,3.0,95,0.00,,---,0.00,VWS V14.01,2013-10-24 08:35:00,
2013-10-24 04:40:00,38.7,37.4,29.87,WSW,256,0.0,5.0,95,0.00,,---,0.00,VWS V14.01,2013-10-24 08:40:00,
2013-10-24 04:45:00,38.5,37.2,29.87,WNW,284,0.0,5.0,95,0.00,,---,0.00,VWS V14.01,2013-10-24 08:45:00,
2013-10-24 04:50:00,38.4,37.1,29.88,WSW,248,0.0,5.0,95,0.00,,---,0.00,VWS V14.01,2013-10-24 08:50:00,
2013-10-24 04:55:00,38.4,37.1,29.88,West,276,0.0,5.0,95,0.00,,---,0.00,VWS V14.01,2013-10-24 08:55:00,
2013-10-24 05:00:00,38.5,37.2,29.88,West,259,1.0,3.0,95,0.00,,---,0.00,VWS V14.01,2013-10-24 09:00:00,
2013-10-24 05:05:00,38.6,37.3,29.89,WSW,254,1.0,5.0,95,0.00,,---,0.00,VWS V14.01,2013-10-24 09:05:00,
2013-10-24 05:10:00,38.6,37.3,29.89,WNW,294,2.0,5.0,95,0.00,,---,0.00,VWS V14.01,2013-10-24 09:10:00,
2013-10-24 05:15:00,38.6,37.3,29.89,West,277,4.0,5.0,95,0.00,,---,0.00,VWS V14.01,2013-10-24 09:15:00,
2013-10-24 05:20:00,38.6,37.3,29.89,WNW,301,0.0,5.0,95,0.00,,---,0.00,VWS V14.01,2013-10-24 09:20:00,
2013-10-24 05:25:00,38.5,37.2,29.89,WNW,298,4.0,5.0,95,0.00,,---,0.00,VWS V14.01,2013-10-24 09:25:00,
2013-10-24 05:30:00,38.5,37.2,29.89,WSW,240,1.0,1.0,95,0.00,,---,0.00,VWS V14.01,2013-10-24 09:30:00,
2013-10-24 05:35:00,38.4,37.1,29.90,West,273,2.0,6.0,95,0.00,,---,0.00,VWS V14.01,2013-10-24 09:35:00,
2013-10-24 05:40:00,38.4,37.1,29.90,WNW,285,0.0,6.0,95,0.00,,---,0.00,VWS V14.01,2013-10-24 09:40:00,
2013-10-24 05:45:00,38.4,37.1,29.90,West,278,0.0,6.0,95,0.00,,---,0.00,VWS V14.01,2013-10-24 09:45:00,
2013-10-24 05:50:00,38.3,37.0,29.90,WSW,248,1.0,6.0,95,0.00,,---,0.00,VWS V14.01,2013-10-24 09:50:00,
2013-10-24 05:55:00,38.4,37.1,29.91,West,268,2.0,6.0,95,0.00,,---,0.00,VWS V14.01,2013-10-24 09:55:00,
2013-10-24 06:00:00,38.4,37.1,29.90,WNW,288,1.0,1.0,95,0.00,,---,0.00,VWS V14.01,2013-10-24 10:00:00,
2013-10-24 06:05:00,38.3,37.0,29.91,West,281,0.0,3.0,95,0.00,,---,0.00,VWS V14.01,2013-10-24 10:05:00,
2013-10-24 06:10:00,38.3,37.0,29.91,WSW,240,2.0,5.0,95,0.00,,---,0.00,VWS V14.01,2013-10-24 10:10:00,
2013-10-24 06:15:00,38.4,37.1,29.91,SW,236,0.0,5.0,95,0.00,,---,0.00,VWS V14.01,2013-10-24 10:15:00,
2013-10-24 06:20:00,38.3,37.0,29.91,WSW,242,0.0,5.0,95,0.00,,---,0.00,VWS V14.01,2013-10-24 10:20:00,
2013-10-24 06:25:00,38.3,37.0,29.91,West,263,0.0,5.0,95,0.00,,---,0.00,VWS V14.01,2013-10-24 10:25:00,
2013-10-24 06:30:00,38.2,36.9,29.92,WSW,244,2.0,5.0,95,0.00,,---,0.00,VWS V14.01,2013-10-24 10:30:00,
2013-10-24 06:35:00,38.1,36.8,29.92,WNW,295,0.0,3.0,95,0.00,,---,0.00,VWS V14.01,2013-10-24 10:35:00,
2013-10-24 06:40:00,38.0,36.7,29.92,WSW,257,0.0,3.0,95,0.00,,---,0.00,VWS V14.01,2013-10-24 10:40:00,
2013-10-24 06:45:00,37.9,36.6,29.92,West,268,0.0,3.0,95,0.00,,---,0.00,VWS V14.01,2013-10-24 10:45:00,
2013-10-24 06:50:00,37.9,36.6,29.92,West,261,1.0,3.0,95,0.00,,---,0.00,VWS V14.01,2013-10-24 10:50:00,
2013-10-24 06:55:00,37.7,36.4,29.92,WNW,284,0.0,3.0,95,0.00,,---,0.00,VWS V14.01,2013-10-24 10:55:00,
2013-10-24 07:00:00,37.6,36.3,29.93,WSW,239,0.0,7.0,95,0.00,,---,0.00,VWS V14.01,2013-10-24 11:00:00,
2013-10-24 07:05:00,37.5,36.2,29.93,West,263,1.0,4.0,95,0.00,,---,0.00,VWS V14.01,2013-10-24 11:05:00,
2013-10-24 07:10:00,37.5,36.2,29.93,West,269,0.0,5.0,95,0.00,,---,0.00,VWS V14.01,2013-10-24 11:10:00,
2013-10-24 07:15:00,37.5,36.2,29.93,WNW,292,1.0,5.0,95,0.00,,---,0.00,VWS V14.01,2013-10-24 11:15:00,
2013-10-24 07:20:00,37.5,36.2,29.93,West,260,0.0,5.0,95,0.00,,---,0.00,VWS V14.01,2013-10-24 11:20:00,
2013-10-24 07:25:00,37.4,36.1,29.93,West,277,0.0,5.0,95,0.00,,---,0.00,VWS V14.01,2013-10-24 11:25:00,
2013-10-24 07:30:00,37.4,36.1,29.94,WSW,255,0.0,5.0,95,0.00,,---,0.00,VWS V14.01,2013-10-24 11:30:00,
2013-10-24 07:35:00,37.3,36.0,29.94,SW,225,0.0,1.0,95,0.00,,---,0.00,VWS V14.01,2013-10-24 11:35:00,
2013-10-24 07:40:00,37.2,35.9,29.94,West,269,1.0,4.0,95,0.00,,---,0.00,VWS V14.01,2013-10-24 11:40:00,
2013-10-24 07:45:00,37.1,35.8,29.94,West,270,0.0,4.0,95,0.00,,---,0.00,VWS V14.01,2013-10-24 11:45:00,
2013-10-24 07:50:00,37.2,35.9,29.94,WNW,286,0.0,4.0,95,0.00,,---,0.00,VWS V14.01,2013-10-24 11:50:00,
2013-10-24 07:55:00,37.2,35.9,29.95,West,273,0.0,6.0,95,0.00,,---,0.00,VWS V14.01,2013-10-24 11:55:00,
2013-10-24 08:00:00,37.4,36.1,29.95,WSW,253,1.0,6.0,95,0.00,,---,0.00,VWS V14.01,2013-10-24 12:00:00,
2013-10-24 08:05:00,37.7,36.7,29.95,SW,221,1.0,7.0,96,0.00,,---,0.00,VWS V14.01,2013-10-24 12:05:00,
2013-10-24 08:10:00,38.0,37.0,29.96,NNW,343,1.0,7.0,96,0.00,,---,0.00,VWS V14.01,2013-10-24 12:10:00,
2013-10-24 08:15:00,38.3,37.3,29.96,West,261,0.0,8.0,96,0.00,,---,0.00,VWS V14.01,2013-10-24 12:15:00,
2013-10-24 08:20:00,38.4,37.4,29.96,SW,236,2.0,8.0,96,0.00,,---,0.00,VWS V14.01,2013-10-24 12:20:00,
2013-10-24 08:24:00,38.7,37.7,29.96,WSW,254,1.0,8.0,96,0.00,,---,0.00,VWS V14.01,2013-10-24 12:24:00,
2013-10-24 08:29:00,39.0,38.0,29.96,West,278,0.0,8.0,96,0.00,,---,0.00,VWS V14.01,2013-10-24 12:29:00,
2013-10-24 08:30:00,37.4,36.1,29.94,WSW,255,0.0,5.0,95,0.00,,---,0.00,VWS V14.01,2013-10-24 12:30:00,
2013-10-24 08:34:00,39.3,38.3,29.97,West,265,1.0,1.0,96,0.00,,---,0.00,VWS V14.01,2013-10-24 12:34:00,
2013-10-24 08:39:00,39.6,38.3,29.97,WSW,245,0.0,2.0,95,0.00,,---,0.00,VWS V14.01,2013-10-24 12:39:00,
2013-10-24 08:44:00,39.8,38.5,29.97,WNW,295,1.0,2.0,95,0.00,,---,0.00,VWS V14.01,2013-10-24 12:44:00,
2013-10-24 08:49:00,40.3,39.0,29.97,WNW,299,1.0,3.0,95,0.00,,---,0.00,VWS V14.01,2013-10-24 12:49:00,
2013-10-24 08:54:00,40.7,39.1,29.97,West,262,0.0,3.0,94,0.00,,---,0.00,VWS V14.01,2013-10-24 12:54:00,
2013-10-24 08:59:00,41.1,39.2,29.97,West,273,1.0,3.0,93,0.00,,---,0.00,VWS V14.01,2013-10-24 12:59:00,
2013-10-24 09:00:00,37.4,36.1,29.95,WSW,248,0.0,6.0,95,0.00,,---,0.00,VWS V14.01,2013-10-24 13:00:00,
2013-10-24 09:04:00,41.6,39.5,29.98,SW,236,2.0,2.0,92,0.00,,---,0.00,VWS V14.01,2013-10-24 13:04:00,
2013-10-24 09:09:00,42.3,39.6,29.97,NW,323,0.0,2.0,90,0.00,,---,0.00,VWS V14.01,2013-10-24 13:09:00,
2013-10-24 09:14:00,43.1,40.1,29.97,NW,306,0.0,3.0,89,0.00,,---,0.00,VWS V14.01,2013-10-24 13:14:00,
2013-10-24 09:19:00,43.9,40.3,29.97,WNW,287,2.0,3.0,87,0.00,,---,0.00,VWS V14.01,2013-10-24 13:19:00,
2013-10-24 09:24:00,44.5,40.3,29.97,WSW,244,1.0,4.0,85,0.00,,---,0.00,VWS V14.01,2013-10-24 13:24:00,
2013-10-24 09:29:00,45.2,41.0,29.97,WSW,256,1.0,4.0,85,0.00,,---,0.00,VWS V14.01,2013-10-24 13:29:00,
2013-10-24 09:30:00,39.0,38.0,29.96,West,278,0.0,8.0,96,0.00,,---,0.00,VWS V14.01,2013-10-24 13:30:00,
2013-10-24 09:34:00,45.7,40.5,29.97,West,281,3.0,4.0,82,0.00,,---,0.00,VWS V14.01,2013-10-24 13:34:00,
2013-10-24 09:39:00,46.3,40.2,29.97,NW,311,5.0,13.0,79,0.00,,---,0.00,VWS V14.01,2013-10-24 13:39:00,
2013-10-24 09:44:00,46.7,40.5,29.97,West,263,4.0,13.0,79,0.00,,---,0.00,VWS V14.01,2013-10-24 13:44:00,
2013-10-24 09:49:00,47.2,40.4,29.98,West,277,8.0,13.0,77,0.00,,---,0.00,VWS V14.01,2013-10-24 13:49:00,
2013-10-24 09:54:00,47.6,40.4,29.98,SW,221,3.0,13.0,76,0.00,,---,0.00,VWS V14.01,2013-10-24 13:54:00,
2013-10-24 09:59:00,47.9,40.7,29.97,WNW,285,2.0,13.0,76,0.00,,---,0.00,VWS V14.01,2013-10-24 13:59:00,
2013-10-24 10:00:00,41.1,39.2,29.97,West,273,0.0,3.0,93,0.00,,---,0.00,VWS V14.01,2013-10-24 14:00:00,
2013-10-24 10:04:00,48.3,40.8,29.98,SW,229,3.0,8.0,75,0.00,,---,0.00,VWS V14.01,2013-10-24 14:04:00,
2013-10-24 10:09:00,48.8,40.9,29.97,WNW,282,2.0,10.0,74,0.00,,---,0.00,VWS V14.01,2013-10-24 14:09:00,
2013-10-24 10:14:00,49.1,40.5,29.98,WSW,238,5.0,10.0,72,0.00,,---,0.00,VWS V14.01,2013-10-24 14:14:00,
2013-10-24 10:19:00,49.1,40.5,29.98,West,277,3.0,11.0,72,0.00,,---,0.00,VWS V14.01,2013-10-24 14:19:00,
2013-10-24 10:24:00,49.4,41.1,29.98,West,275,5.0,11.0,73,0.00,,---,0.00,VWS V14.01,2013-10-24 14:24:00,
2013-10-24 10:29:00,49.7,41.0,29.97,West,274,0.0,11.0,72,0.00,,---,0.00,VWS V14.01,2013-10-24 14:29:00,
2013-10-24 10:30:00,45.2,40.7,29.97,West,263,0.0,4.0,84,0.00,,---,0.00,VWS V14.01,2013-10-24 14:30:00,
2013-10-24 10:34:00,50.2,41.5,29.98,West,265,8.0,9.0,72,0.00,,---,0.00,VWS V14.01,2013-10-24 14:34:00,
2013-10-24 10:39:00,50.3,41.3,29.97,WNW,302,2.0,9.0,71,0.00,,---,0.00,VWS V14.01,2013-10-24 14:39:00,
2013-10-24 10:44:00,50.8,41.8,29.97,West,267,0.0,9.0,71,0.00,,---,0.00,VWS V14.01,2013-10-24 14:44:00,
2013-10-24 10:49:00,51.2,42.5,29.97,WNW,290,1.0,9.0,72,0.00,,---,0.00,VWS V14.01,2013-10-24 14:49:00,
2013-10-24 10:54:00,51.5,42.0,29.97,West,279,1.0,9.0,70,0.00,,---,0.00,VWS V14.01,2013-10-24 14:54:00,
2013-10-24 10:59:00,51.4,40.0,29.97,West,278,10.0,12.0,65,0.00,,---,0.00,VWS V14.01,2013-10-24 14:59:00,
2013-10-24 11:00:00,48.0,40.5,29.97,WSW,254,3.0,13.0,75,0.00,,---,0.00,VWS V14.01,2013-10-24 15:00:00,
2013-10-24 11:04:00,51.3,39.5,29.97,North,350,1.0,15.0,64,0.00,,---,0.00,VWS V14.01,2013-10-24 15:04:00,
2013-10-24 11:09:00,51.4,41.2,29.97,WNW,294,0.0,15.0,68,0.00,,---,0.00,VWS V14.01,2013-10-24 15:09:00,
2013-10-24 11:14:00,51.8,40.4,29.97,WNW,288,0.0,15.0,65,0.00,,---,0.00,VWS V14.01,2013-10-24 15:14:00,
2013-10-24 11:19:00,52.1,40.3,29.97,SSW,200,0.0,15.0,64,0.00,,---,0.00,VWS V14.01,2013-10-24 15:19:00,
2013-10-24 11:24:00,51.9,39.7,29.96,West,277,3.0,15.0,63,0.00,,---,0.00,VWS V14.01,2013-10-24 15:24:00,
2013-10-24 11:29:00,51.7,39.9,29.96,WSW,248,0.0,15.0,64,0.00,,---,0.00,VWS V14.01,2013-10-24 15:29:00,
2013-10-24 11:30:00,49.7,41.0,29.97,WNW,283,1.0,11.0,72,0.00,,---,0.00,VWS V14.01,2013-10-24 15:30:00,
2013-10-24 11:34:00,51.4,38.4,29.96,NW,315,1.0,14.0,61,0.00,,---,0.00,VWS V14.01,2013-10-24 15:34:00,
2013-10-24 11:39:00,51.3,38.7,29.96,WSW,245,6.0,14.0,62,0.00,,---,0.00,VWS V14.01,2013-10-24 15:39:00,
2013-10-24 11:44:00,51.1,38.5,29.96,West,272,11.0,14.0,62,0.00,,---,0.00,VWS V14.01,2013-10-24 15:44:00,
2013-10-24 11:49:00,50.9,38.8,29.96,WNW,292,7.0,14.0,63,0.00,,---,0.00,VWS V14.01,2013-10-24 15:49:00,
2013-10-24 11:54:00,50.8,38.7,29.96,NNW,347,1.0,14.0,63,0.00,,---,0.00,VWS V14.01,2013-10-24 15:54:00,
2013-10-24 11:59:00,51.2,39.0,29.96,West,279,0.0,14.0,63,0.00,,---,0.00,VWS V14.01,2013-10-24 15:59:00,
2013-10-24 12:00:00,51.4,40.0,29.97,West,269,5.0,12.0,65,0.00,,---,0.00,VWS V14.01,2013-10-24 16:00:00,
2013-10-24 12:04:00,51.3,39.2,29.95,NW,307,1.0,2.0,63,0.00,,---,0.00,VWS V14.01,2013-10-24 16:04:00,
2013-10-24 12:09:00,51.5,39.3,29.95,WNW,283,0.0,2.0,63,0.00,,---,0.00,VWS V14.01,2013-10-24 16:09:00,
2013-10-24 12:14:00,51.9,40.1,29.95,NW,311,1.0,2.0,64,0.00,,---,0.00,VWS V14.01,2013-10-24 16:14:00,
2013-10-24 12:19:00,52.1,40.7,29.95,WSW,257,1.0,2.0,65,0.00,,---,0.00,VWS V14.01,2013-10-24 16:19:00,
2013-10-24 12:24:00,52.1,39.5,29.95,West,280,0.0,2.0,62,0.00,,---,0.00,VWS V14.01,2013-10-24 16:24:00,
2013-10-24 12:29:00,51.6,38.6,29.94,NNE,13,0.0,2.0,61,0.00,,---,0.00,VWS V14.01,2013-10-24 16:29:00,
2013-10-24 12:30:00,51.6,39.8,29.96,West,276,4.0,15.0,64,0.00,,---,0.00,VWS V14.01,2013-10-24 16:30:00,
2013-10-24 12:34:00,51.3,38.7,29.94,WSW,253,0.0,1.0,62,0.00,,---,0.00,VWS V14.01,2013-10-24 16:34:00,
2013-10-24 12:39:00,51.3,38.7,29.94,WNW,288,0.0,1.0,62,0.00,,---,0.00,VWS V14.01,2013-10-24 16:39:00,
2013-10-24 12:44:00,51.7,40.3,29.93,West,271,1.0,1.0,65,0.00,,---,0.00,VWS V14.01,2013-10-24 16:44:00,
2013-10-24 12:49:00,52.0,39.4,29.94,West,280,0.0,2.0,62,0.00,,---,0.00,VWS V14.01,2013-10-24 16:49:00,
2013-10-24 12:54:00,51.9,38.0,29.94,NW,313,0.0,2.0,59,0.00,,---,0.00,VWS V14.01,2013-10-24 16:54:00,
2013-10-24 12:59:00,52.1,38.7,29.93,WNW,295,1.0,2.0,60,0.00,,---,0.00,VWS V14.01,2013-10-24 16:59:00,
2013-10-24 13:00:00,51.2,39.0,29.96,WSW,257,0.0,14.0,63,0.00,,---,0.00,VWS V14.01,2013-10-24 17:00:00,
2013-10-24 13:04:00,52.5,38.2,29.93,NNW,328,1.0,1.0,58,0.00,,---,0.00,VWS V14.01,2013-10-24 17:04:00,
2013-10-24 13:09:00,53.0,38.2,29.93,West,266,0.0,5.0,57,0.00,,---,0.00,VWS V14.01,2013-10-24 17:09:00,
2013-10-24 13:14:00,53.0,39.1,29.93,WNW,286,1.0,5.0,59,0.00,,---,0.00,VWS V14.01,2013-10-24 17:14:00,
2013-10-24 13:19:00,53.0,37.7,29.93,WSW,252,0.0,5.0,56,0.00,,---,0.00,VWS V14.01,2013-10-24 17:19:00,
2013-10-24 13:24:00,53.2,36.0,29.92,North,355,1.0,5.0,52,0.00,,---,0.00,VWS V14.01,2013-10-24 17:24:00,
2013-10-24 13:29:00,53.1,36.4,29.92,SW,235,1.0,5.0,53,0.00,,---,0.00,VWS V14.01,2013-10-24 17:29:00,
2013-10-24 13:30:00,51.5,38.5,29.94,SW,233,1.0,2.0,61,0.00,,---,0.00,VWS V14.01,2013-10-24 17:30:00,
2013-10-24 13:34:00,52.8,38.0,29.92,SSW,211,1.0,1.0,57,0.00,,---,0.00,VWS V14.01,2013-10-24 17:34:00,
2013-10-24 13:39:00,52.6,36.9,29.92,WSW,244,0.0,1.0,55,0.01,,---,0.01,VWS V14.01,2013-10-24 17:39:00,
2013-10-24 13:44:00,52.7,36.5,29.92,South,187,0.0,2.0,54,0.01,,---,0.01,VWS V14.01,2013-10-24 17:44:00,
2013-10-24 13:49:00,53.2,37.5,29.92,West,280,0.0,3.0,55,0.01,,---,0.01,VWS V14.01,2013-10-24 17:49:00,
2013-10-24 13:54:00,53.3,35.7,29.92,WSW,253,0.0,3.0,51,0.01,,---,0.01,VWS V14.01,2013-10-24 17:54:00,
2013-10-24 13:59:00,53.0,37.3,29.92,WNW,294,0.0,3.0,55,0.01,,---,0.01,VWS V14.01,2013-10-24 17:59:00,
2013-10-24 14:00:00,52.2,38.8,29.93,South,184,0.0,2.0,60,0.00,,---,0.00,VWS V14.01,2013-10-24 18:00:00,
2013-10-24 14:04:00,52.3,36.2,29.92,WNW,292,1.0,1.0,54,0.01,,---,0.01,VWS V14.01,2013-10-24 18:04:00,
2013-10-24 14:09:00,51.7,35.6,29.92,WSW,252,1.0,7.0,54,0.01,,---,0.01,VWS V14.01,2013-10-24 18:09:00,
2013-10-24 14:14:00,51.5,37.2,29.92,West,273,0.0,7.0,58,0.01,,---,0.01,VWS V14.01,2013-10-24 18:14:00,
2013-10-24 14:19:00,51.7,36.1,29.92,WSW,251,0.0,7.0,55,0.01,,---,0.01,VWS V14.01,2013-10-24 18:19:00,
2013-10-24 14:24:00,51.9,35.3,29.92,SW,221,0.0,7.0,53,0.01,,---,0.01,VWS V14.01,2013-10-24 18:24:00,
2013-10-24 14:29:00,51.7,35.1,29.92,West,281,0.0,7.0,53,0.01,,---,0.01,VWS V14.01,2013-10-24 18:29:00,
2013-10-24 14:30:00,53.0,35.9,29.92,West,277,0.0,5.0,52,0.00,,---,0.00,VWS V14.01,2013-10-24 18:30:00,
2013-10-24 14:34:00,51.7,35.6,29.92,WNW,286,1.0,1.0,54,0.01,,---,0.01,VWS V14.01,2013-10-24 18:34:00,
2013-10-24 14:39:00,51.9,35.3,29.92,WNW,292,0.0,1.0,53,0.01,,---,0.01,VWS V14.01,2013-10-24 18:39:00,
2013-10-24 14:44:00,52.2,37.0,29.92,West,277,0.0,1.0,56,0.01,,---,0.01,VWS V14.01,2013-10-24 18:44:00,
2013-10-24 14:48:00,52.2,36.1,29.93,WNW,303,0.0,1.0,54,0.01,,---,0.01,VWS V14.01,2013-10-24 18:48:00,
2013-10-24 14:53:00,52.1,33.5,29.92,NW,320,0.0,4.0,49,0.01,,---,0.01,VWS V14.01,2013-10-24 18:53:00,
2013-10-24 14:58:00,51.9,34.4,29.92,West,264,0.0,4.0,51,0.01,,---,0.01,VWS V14.01,2013-10-24 18:58:00,
2013-10-24 15:00:00,52.8,36.6,29.92,North,5,1.0,3.0,54,0.01,,---,0.01,VWS V14.01,2013-10-24 19:00:00,
2013-10-24 15:03:00,51.9,35.3,29.92,WSW,257,0.0,1.0,53,0.00,,---,0.01,VWS V14.01,2013-10-24 19:03:00,
2013-10-24 15:08:00,51.7,34.7,29.93,West,259,1.0,1.0,52,0.00,,---,0.01,VWS V14.01,2013-10-24 19:08:00,
2013-10-24 15:13:00,51.6,34.6,29.93,WSW,258,1.0,1.0,52,0.00,,---,0.01,VWS V14.01,2013-10-24 19:13:00,
2013-10-24 15:18:00,51.7,33.7,29.93,West,263,0.0,1.0,50,0.00,,---,0.01,VWS V14.01,2013-10-24 19:18:00,
2013-10-24 15:23:00,51.6,32.0,29.93,West,278,0.0,1.0,47,0.00,,---,0.01,VWS V14.01,2013-10-24 19:23:00,
2013-10-24 15:28:00,51.5,31.4,29.93,West,271,1.0,1.0,46,0.00,,---,0.01,VWS V14.01,2013-10-24 19:28:00,
2013-10-24 15:30:00,51.6,34.1,29.92,West,275,0.0,7.0,51,0.01,,---,0.01,VWS V14.01,2013-10-24 19:30:00,
2013-10-24 15:33:00,51.4,30.8,29.94,WSW,250,0.0,1.0,45,0.00,,---,0.01,VWS V14.01,2013-10-24 19:33:00,
2013-10-24 15:38:00,51.2,31.1,29.94,SE,136,1.0,2.0,46,0.00,,---,0.01,VWS V14.01,2013-10-24 19:38:00,
2013-10-24 15:43:00,51.3,31.2,29.94,WNW,286,1.0,3.0,46,0.00,,---,0.01,VWS V14.01,2013-10-24 19:43:00,
2013-10-24 15:48:00,51.5,31.4,29.94,West,277,0.0,3.0,46,0.00,,---,0.01,VWS V14.01,2013-10-24 19:48:00,
2013-10-24 15:53:00,51.7,32.1,29.94,WNW,301,0.0,3.0,47,0.00,,---,0.01,VWS V14.01,2013-10-24 19:53:00,
2013-10-24 15:58:00,51.7,33.2,29.95,SSE,157,1.0,3.0,49,0.00,,---,0.01,VWS V14.01,2013-10-24 19:58:00,
2013-10-24 16:00:00,51.9,34.4,29.92,SW,228,0.0,4.0,51,0.01,,---,0.01,VWS V14.01,2013-10-24 20:00:00,
2013-10-24 16:03:00,51.4,31.9,29.95,WSW,253,0.0,1.0,47,0.00,,---,0.01,VWS V14.01,2013-10-24 20:03:00,
2013-10-24 16:08:00,51.3,31.8,29.94,WSW,254,0.0,1.0,47,0.00,,---,0.01,VWS V14.01,2013-10-24 20:08:00,
2013-10-24 16:13:00,51.3,32.8,29.95,West,259,0.0,1.0,49,0.00,,---,0.01,VWS V14.01,2013-10-24 20:13:00,
2013-10-24 16:18:00,51.1,31.6,29.95,West,277,1.0,1.0,47,0.00,,---,0.01,VWS V14.01,2013-10-24 20:18:00,
2013-10-24 16:23:00,50.6,31.6,29.95,SSW,199,0.0,2.0,48,0.00,,---,0.01,VWS V14.01,2013-10-24 20:23:00,
2013-10-24 16:28:00,50.3,32.4,29.95,West,266,1.0,2.0,50,0.00,,---,0.01,VWS V14.01,2013-10-24 20:28:00,
2013-10-24 16:30:00,51.5,32.0,29.93,SW,224,0.0,1.0,47,0.00,,---,0.01,VWS V14.01,2013-10-24 20:30:00,
2013-10-24 16:33:00,50.0,32.1,29.95,WSW,257,1.0,2.0,50,0.00,,---,0.01,VWS V14.01,2013-10-24 20:33:00,
2013-10-24 16:38:00,49.7,33.3,29.95,West,259,1.0,2.0,53,0.00,,---,0.01,VWS V14.01,2013-10-24 20:38:00,
2013-10-24 16:43:00,49.5,33.6,29.95,West,264,1.0,2.0,54,0.00,,---,0.01,VWS V14.01,2013-10-24 20:43:00,
2013-10-24 16:48:00,49.4,34.8,29.95,WSW,237,0.0,2.0,57,0.00,,---,0.01,VWS V14.01,2013-10-24 20:48:00,
2013-10-24 16:53:00,49.2,33.3,29.95,West,264,1.0,2.0,54,0.00,,---,0.01,VWS V14.01,2013-10-24 20:53:00,
2013-10-24 16:58:00,49.2,33.3,29.95,WSW,238,1.0,2.0,54,0.00,,---,0.01,VWS V14.01,2013-10-24 20:58:00,
2013-10-24 17:00:00,51.6,33.6,29.95,WSW,248,1.0,3.0,50,0.00,,---,0.01,VWS V14.01,2013-10-24 21:00:00,
2013-10-24 17:03:00,49.2,32.8,29.96,NNW,330,0.0,1.0,53,0.00,,---,0.01,VWS V14.01,2013-10-24 21:03:00,
2013-10-24 17:08:00,49.3,32.4,29.96,West,273,0.0,1.0,52,0.00,,---,0.01,VWS V14.01,2013-10-24 21:08:00,
2013-10-24 17:13:00,49.3,32.4,29.95,WNW,302,0.0,1.0,52,0.00,,---,0.01,VWS V14.01,2013-10-24 21:13:00,
2013-10-24 17:18:00,49.2,32.8,29.96,WSW,251,0.0,1.0,53,0.00,,---,0.01,VWS V14.01,2013-10-24 21:18:00,
2013-10-24 17:23:00,49.1,33.2,29.96,WNW,290,0.0,1.0,54,0.00,,---,0.01,VWS V14.01,2013-10-24 21:23:00,
2013-10-24 17:28:00,49.0,33.5,29.96,West,260,1.0,1.0,55,0.00,,---,0.01,VWS V14.01,2013-10-24 21:28:00,
2013-10-24 17:30:00,50.2,32.3,29.95,NNW,330,1.0,2.0,50,0.00,,---,0.01,VWS V14.01,2013-10-24 21:30:00,
2013-10-24 17:33:00,48.9,33.9,29.96,WNW,292,0.0,1.0,56,0.00,,---,0.01,VWS V14.01,2013-10-24 21:33:00,
2013-10-24 17:38:00,48.8,34.3,29.97,West,278,0.0,1.0,57,0.00,,---,0.01,VWS V14.01,2013-10-24 21:38:00,
2013-10-24 17:43:00,48.7,33.7,29.97,WSW,250,0.0,1.0,56,0.00,,---,0.01,VWS V14.01,2013-10-24 21:43:00,
2013-10-24 17:48:00,48.6,32.7,29.97,SSW,211,1.0,1.0,54,0.00,,---,0.01,VWS V14.01,2013-10-24 21:48:00,
2013-10-24 17:53:00,48.6,33.2,29.97,WSW,253,0.0,1.0,55,0.00,,---,0.01,VWS V14.01,2013-10-24 21:53:00,
2013-10-24 17:58:00,48.6,33.6,29.97,WSW,258,0.0,1.0,56,0.00,,---,0.01,VWS V14.01,2013-10-24 21:58:00,
2013-10-24 18:00:00,49.2,33.7,29.96,WSW,254,0.0,2.0,55,0.00,,---,0.01,VWS V14.01,2013-10-24 22:00:00,
2013-10-24 18:03:00,48.4,33.9,29.97,West,269,0.0,1.0,57,0.00,,---,0.01,VWS V14.01,2013-10-24 22:03:00,
2013-10-24 18:08:00,48.3,33.8,29.98,West,275,1.0,1.0,57,0.00,,---,0.01,VWS V14.01,2013-10-24 22:08:00,
2013-10-24 18:13:00,48.1,33.6,29.98,SW,214,1.0,2.0,57,0.00,,---,0.01,VWS V14.01,2013-10-24 22:13:00,
2013-10-24 18:18:00,47.9,33.4,29.98,WNW,294,0.0,2.0,57,0.00,,---,0.01,VWS V14.01,2013-10-24 22:18:00,
2013-10-24 18:23:00,47.7,34.5,29.99,WSW,247,0.0,2.0,60,0.00,,---,0.01,VWS V14.01,2013-10-24 22:23:00,
2013-10-24 18:28:00,47.6,33.1,29.99,WNW,288,0.0,2.0,57,0.00,,---,0.01,VWS V14.01,2013-10-24 22:28:00,
2013-10-24 18:30:00,49.0,33.5,29.96,West,260,1.0,3.0,55,0.00,,---,0.01,VWS V14.01,2013-10-24 22:30:00,
2013-10-24 18:33:00,47.4,34.2,29.99,West,271,0.0,1.0,60,0.00,,---,0.01,VWS V14.01,2013-10-24 22:33:00,
2013-10-24 18:38:00,47.2,33.6,29.99,WSW,254,0.0,1.0,59,0.00,,---,0.01,VWS V14.01,2013-10-24 22:38:00,
2013-10-24 18:43:00,47.0,33.8,30.00,West,261,1.0,1.0,60,0.00,,---,0.01,VWS V14.01,2013-10-24 22:43:00,
2013-10-24 18:48:00,46.8,33.7,30.00,WSW,254,1.0,1.0,60,0.00,,---,0.01,VWS V14.01,2013-10-24 22:48:00,
2013-10-24 18:53:00,46.6,35.5,30.00,WSW,248,0.0,1.0,65,0.00,,---,0.01,VWS V14.01,2013-10-24 22:53:00,
2013-10-24 18:58:00,46.2,35.5,30.00,West,274,0.0,2.0,66,0.00,,---,0.01,VWS V14.01,2013-10-24 22:58:00,
2013-10-24 19:00:00,48.5,33.5,29.97,WNW,287,0.0,1.0,56,0.00,,---,0.01,VWS V14.01,2013-10-24 23:00:00,
2013-10-24 19:03:00,45.9,34.4,30.00,West,267,0.0,1.0,64,0.00,,---,0.01,VWS V14.01,2013-10-24 23:03:00,
2013-10-24 19:08:00,45.4,34.3,30.00,West,267,0.0,1.0,65,0.00,,---,0.01,VWS V14.01,2013-10-24 23:08:00,
2013-10-24 19:13:00,45.0,35.1,30.01,West,271,0.0,1.0,68,0.00,,---,0.01,VWS V14.01,2013-10-24 23:13:00,
2013-10-24 19:18:00,44.6,35.1,30.01,West,267,0.0,1.0,69,0.00,,---,0.01,VWS V14.01,2013-10-24 23:18:00,
2013-10-24 19:23:00,44.1,35.0,30.01,West,271,0.0,1.0,70,0.00,,---,0.01,VWS V14.01,2013-10-24 23:23:00,
2013-10-24 19:28:00,43.6,34.8,30.01,West,271,1.0,1.0,71,0.00,,---,0.01,VWS V14.01,2013-10-24 23:28:00,
2013-10-24 19:30:00,47.5,33.0,29.99,WSW,242,0.0,2.0,57,0.00,,---,0.01,VWS V14.01,2013-10-24 23:30:00,
2013-10-24 19:33:00,43.1,34.7,30.01,West,267,0.0,1.0,72,0.00,,---,0.01,VWS V14.01,2013-10-24 23:33:00,
2013-10-24 19:38:00,42.5,34.5,30.02,West,273,0.0,3.0,73,0.00,,---,0.01,VWS V14.01,2013-10-24 23:38:00,
2013-10-24 19:43:00,42.2,34.9,30.02,West,273,0.0,3.0,75,0.00,,---,0.01,VWS V14.01,2013-10-24 23:43:00,
2013-10-24 19:48:00,41.7,34.4,30.02,West,273,0.0,3.0,75,0.00,,---,0.01,VWS V14.01,2013-10-24 23:48:00,
2013-10-24 19:53:00,41.4,34.4,30.02,West,270,0.0,3.0,76,0.00,,---,0.01,VWS V14.01,2013-10-24 23:53:00,
2013-10-24 19:58:00,41.0,34.3,30.02,West,273,0.0,3.0,77,0.00,,---,0.01,VWS V14.01,2013-10-24 23:58:00,
2013-10-24 20:00:00,46.1,35.0,30.00,West,261,0.0,2.0,65,0.00,,---,0.01,VWS V14.01,2013-10-25 00:00:00,
2013-10-24 20:03:00,40.7,34.4,30.02,West,273,0.0,1.0,78,0.00,,---,0.01,VWS V14.01,2013-10-25 00:03:00,
2013-10-24 20:08:00,40.4,34.4,30.02,West,273,0.0,1.0,79,0.00,,---,0.01,VWS V14.01,2013-10-25 00:08:00,
2013-10-24 20:13:00,40.1,34.1,30.02,West,270,0.0,1.0,79,0.00,,---,0.01,VWS V14.01,2013-10-25 00:13:00,
2013-10-24 20:18:00,39.8,34.1,30.02,WSW,254,0.0,3.0,80,0.00,,---,0.01,VWS V14.01,2013-10-25 00:18:00,
2013-10-24 20:23:00,39.6,34.3,30.03,WSW,250,0.0,3.0,81,0.00,,---,0.01,VWS V14.01,2013-10-25 00:23:00,
2013-10-24 20:28:00,39.4,34.1,30.03,WSW,254,1.0,3.0,81,0.00,,---,0.01,VWS V14.01,2013-10-25 00:28:00,
2013-10-24 20:30:00,43.4,34.6,30.01,West,271,0.0,1.0,71,0.00,,---,0.01,VWS V14.01,2013-10-25 00:30:00,
2013-10-24 20:33:00,39.2,34.2,30.03,West,265,0.0,1.0,82,0.00,,---,0.01,VWS V14.01,2013-10-25 00:33:00,
2013-10-24 20:38:00,39.1,34.1,30.03,West,266,1.0,4.0,82,0.00,,---,0.01,VWS V14.01,2013-10-25 00:38:00,
2013-10-24 20:43:00,39.0,34.3,30.03,WSW,250,1.0,4.0,83,0.00,,---,0.01,VWS V14.01,2013-10-25 00:43:00,
2013-10-24 20:48:00,38.8,34.1,30.03,WSW,254,0.0,4.0,83,0.00,,---,0.01,VWS V14.01,2013-10-25 00:48:00,
2013-10-24 20:53:00,38.6,33.9,30.03,WSW,254,0.0,4.0,83,0.00,,---,0.01,VWS V14.01,2013-10-25 00:53:00,
2013-10-24 20:58:00,38.5,33.8,30.03,West,276,0.0,4.0,83,0.00,,---,0.01,VWS V14.01,2013-10-25 00:58:00,
2013-10-24 21:00:00,41.0,34.3,30.02,West,273,0.0,3.0,77,0.00,,---,0.01,VWS V14.01,2013-10-25 01:00:00,
2013-10-24 21:03:00,38.4,34.0,30.03,West,279,0.0,3.0,84,0.00,,---,0.01,VWS V14.01,2013-10-25 01:03:00,
2013-10-24 21:08:00,38.3,34.2,30.03,West,276,0.0,3.0,85,0.00,,---,0.01,VWS V14.01,2013-10-25 01:08:00,
2013-10-24 21:13:00,38.3,34.2,30.03,SW,236,1.0,3.0,85,0.00,,---,0.01,VWS V14.01,2013-10-25 01:13:00,
2013-10-24 21:18:00,38.4,34.3,30.04,WSW,257,1.0,4.0,85,0.00,,---,0.01,VWS V14.01,2013-10-25 01:18:00,
2013-10-24 21:23:00,38.4,34.0,30.04,SW,234,0.0,4.0,84,0.00,,---,0.01,VWS V14.01,2013-10-25 01:23:00,
2013-10-24 21:28:00,38.6,34.2,30.04,WSW,237,0.0,4.0,84,0.00,,---,0.01,VWS V14.01,2013-10-25 01:28:00,
2013-10-24 21:30:00,39.3,34.3,30.03,WSW,246,0.0,3.0,82,0.00,,---,0.01,VWS V14.01,2013-10-25 01:30:00,
2013-10-24 21:33:00,38.6,33.9,30.04,WSW,238,0.0,2.0,83,0.00,,---,0.01,VWS V14.01,2013-10-25 01:33:00,
2013-10-24 21:38:00,38.7,34.0,30.05,West,268,0.0,5.0,83,0.00,,---,0.01,VWS V14.01,2013-10-25 01:38:00,
2013-10-24 21:43:00,38.7,34.3,30.05,WSW,249,0.0,5.0,84,0.00,,---,0.01,VWS V14.01,2013-10-25 01:43:00,
2013-10-24 21:48:00,38.7,34.3,30.05,WSW,248,1.0,5.0,84,0.00,,---,0.01,VWS V14.01,2013-10-25 01:48:00,
2013-10-24 21:53:00,38.6,34.2,30.05,West,261,0.0,5.0,84,0.00,,---,0.01,VWS V14.01,2013-10-25 01:53:00,
2013-10-24 21:58:00,38.6,34.2,30.05,West,263,0.0,5.0,84,0.00,,---,0.01,VWS V14.01,2013-10-25 01:58:00,
2013-10-24 22:00:00,38.4,33.7,30.03,West,276,0.0,4.0,83,0.00,,---,0.01,VWS V14.01,2013-10-25 02:00:00,
2013-10-24 22:03:00,38.6,34.2,30.05,West,265,0.0,2.0,84,0.00,,---,0.01,VWS V14.01,2013-10-25 02:03:00,
2013-10-24 22:08:00,38.4,34.0,30.05,WSW,255,0.0,5.0,84,0.00,,---,0.01,VWS V14.01,2013-10-25 02:08:00,
2013-10-24 22:13:00,38.4,34.0,30.05,WSW,255,0.0,5.0,84,0.00,,---,0.01,VWS V14.01,2013-10-25 02:13:00,
2013-10-24 22:18:00,38.3,33.9,30.05,WSW,255,0.0,5.0,84,0.00,,---,0.01,VWS V14.01,2013-10-25 02:18:00,
2013-10-24 22:23:00,38.1,33.7,30.05,WSW,257,0.0,5.0,84,0.00,,---,0.01,VWS V14.01,2013-10-25 02:23:00,
2013-10-24 22:28:00,38.0,33.9,30.05,WSW,257,0.0,5.0,85,0.00,,---,0.01,VWS V14.01,2013-10-25 02:28:00,
2013-10-24 22:30:00,38.6,33.9,30.04,WSW,238,0.0,4.0,83,0.00,,---,0.01,VWS V14.01,2013-10-25 02:30:00,
2013-10-24 22:33:00,37.8,33.7,30.05,WSW,249,2.0,3.0,85,0.00,,---,0.01,VWS V14.01,2013-10-25 02:33:00,
2013-10-24 22:38:00,37.7,33.6,30.06,WSW,257,1.0,4.0,85,0.00,,---,0.01,VWS V14.01,2013-10-25 02:38:00,
2013-10-24 22:43:00,37.7,33.9,30.05,West,264,0.0,4.0,86,0.00,,---,0.01,VWS V14.01,2013-10-25 02:43:00,
2013-10-24 22:48:00,37.7,33.9,30.05,WSW,249,1.0,8.0,86,0.00,,---,0.01,VWS V14.01,2013-10-25 02:48:00,
2013-10-24 22:53:00,37.9,34.1,30.05,WNW,284,3.0,8.0,86,0.00,,---,0.01,VWS V14.01,2013-10-25 02:53:00,
2013-10-24 22:58:00,38.1,34.0,30.05,WSW,246,1.0,8.0,85,0.00,,---,0.01,VWS V14.01,2013-10-25 02:58:00,
2013-10-24 23:00:00,38.6,33.9,30.05,West,265,0.0,5.0,83,0.00,,---,0.01,VWS V14.01,2013-10-25 03:00:00,
2013-10-24 23:03:00,38.5,34.4,30.05,WNW,288,4.0,9.0,85,0.00,,---,0.01,VWS V14.01,2013-10-25 03:03:00,
2013-10-24 23:07:00,38.9,34.5,30.06,West,279,0.0,9.0,84,0.00,,---,0.01,VWS V14.01,2013-10-25 03:07:00,
2013-10-24 23:12:00,39.2,34.5,30.05,WSW,254,1.0,9.0,83,0.00,,---,0.01,VWS V14.01,2013-10-25 03:12:00,
2013-10-24 23:17:00,39.4,34.7,30.06,WNW,288,0.0,9.0,83,0.00,,---,0.01,VWS V14.01,2013-10-25 03:17:00,
2013-10-24 23:22:00,39.5,34.5,30.06,West,275,1.0,9.0,82,0.00,,---,0.01,VWS V14.01,2013-10-25 03:22:00,
2013-10-24 23:27:00,39.5,34.5,30.05,West,261,0.0,9.0,82,0.00,,---,0.01,VWS V14.01,2013-10-25 03:27:00,
2013-10-24 23:30:00,37.9,33.8,30.05,SW,232,1.0,5.0,85,0.00,,---,0.01,VWS V14.01,2013-10-25 03:30:00,
2013-10-24 23:32:00,39.4,34.4,30.06,WNW,282,0.0,4.0,82,0.00,,---,0.01,VWS V14.01,2013-10-25 03:32:00,
2013-10-24 23:37:00,39.3,34.6,30.06,West,263,0.0,4.0,83,0.00,,---,0.01,VWS V14.01,2013-10-25 03:37:00,
2013-10-24 23:42:00,39.2,34.8,30.06,West,271,3.0,4.0,84,0.00,,---,0.01,VWS V14.01,2013-10-25 03:42:00,
2013-10-24 23:47:00,39.0,34.3,30.06,WNW,283,0.0,4.0,83,0.00,,---,0.01,VWS V14.01,2013-10-25 03:47:00,
2013-10-24 23:52:00,38.9,34.5,30.06,WNW,284,0.0,4.0,84,0.00,,---,0.01,VWS V14.01,2013-10-25 03:52:00,
2013-10-24 23:57:00,38.7,34.3,30.06,WSW,245,0.0,4.0,84,0.00,,---,0.01,VWS V14.01,2013-10-25 03:57:00,